createdAt,value
2019-02-20T00:00:26.228Z,9.43
2019-02-20T00:02:55.712Z,10.37
2019-02-20T00:05:24.944Z,8.70
2019-02-20T00:07:54.087Z,10.45
2019-02-20T00:10:23.329Z,9.90
2019-02-20T00:12:52.482Z,9.90
2019-02-20T00:15:21.984Z,10.27
2019-02-20T00:17:51.614Z,10.20
2019-02-20T00:20:20.816Z,10.20
2019-02-20T00:22:50.169Z,10.17
2019-02-20T00:25:19.290Z,10.30
2019-02-20T00:27:48.568Z,9.70
2019-02-20T00:30:17.853Z,9.78
2019-02-20T00:32:47.299Z,10.70
2019-02-20T00:35:16.468Z,10.00
2019-02-20T00:37:45.912Z,9.88
2019-02-20T00:40:15.012Z,10.20
2019-02-20T00:42:44.223Z,10.30
2019-02-20T00:45:32.666Z,10.27
2019-02-20T00:48:23.958Z,11.10
2019-02-20T00:50:59.158Z,10.23
2019-02-20T00:53:35.519Z,9.70
2019-02-20T00:56:14.915Z,11.20
2019-02-20T00:58:44.142Z,9.87
2019-02-20T01:01:13.348Z,10.60
2019-02-20T01:03:42.611Z,10.00
2019-02-20T01:06:12.022Z,10.37
2019-02-20T01:08:41.245Z,10.30
2019-02-20T01:11:10.413Z,9.80
2019-02-20T01:13:39.703Z,9.10
2019-02-20T01:16:08.901Z,10.37
2019-02-20T01:18:38.031Z,9.30
2019-02-20T01:21:07.591Z,10.72
2019-02-20T01:23:37.027Z,9.33
2019-02-20T01:26:06.255Z,9.25
2019-02-20T01:28:35.558Z,10.00
2019-02-20T01:31:05.098Z,9.60
2019-02-20T01:33:34.534Z,9.90
2019-02-20T01:36:03.722Z,9.80
2019-02-20T01:38:32.919Z,9.00
2019-02-20T01:41:02.102Z,10.63
2019-02-20T01:43:31.295Z,10.08
2019-02-20T01:46:00.494Z,10.23
2019-02-20T01:48:29.648Z,9.60
2019-02-20T01:50:58.809Z,10.13
2019-02-20T01:53:28.055Z,9.93
2019-02-20T01:55:57.279Z,10.18
2019-02-20T01:58:26.457Z,10.40
2019-02-20T02:00:55.643Z,10.07
2019-02-20T02:03:24.785Z,9.80
2019-02-20T02:05:54.229Z,9.78
2019-02-20T02:08:23.670Z,10.50
2019-02-20T02:10:52.803Z,10.90
2019-02-20T02:13:22.542Z,10.28
2019-02-20T02:15:51.743Z,9.83
2019-02-20T02:18:20.907Z,9.53
2019-02-20T02:20:50.062Z,9.53
2019-02-20T02:23:20.059Z,9.43
2019-02-20T02:25:50.053Z,11.10
2019-02-20T02:28:19.516Z,11.45
2019-02-20T02:30:48.676Z,10.30
2019-02-20T02:33:17.861Z,13.00
2019-02-20T02:35:47.077Z,12.78
2019-02-20T02:38:16.326Z,12.73
2019-02-20T02:40:45.482Z,12.53
2019-02-20T02:43:14.738Z,12.07
2019-02-20T02:45:44.214Z,12.98
2019-02-20T02:48:13.425Z,14.27
2019-02-20T02:50:42.603Z,12.10
2019-02-20T02:53:11.774Z,12.67
2019-02-20T02:55:41.061Z,14.00
2019-02-20T02:58:10.174Z,13.47
2019-02-20T03:00:39.572Z,12.40
2019-02-20T03:03:08.796Z,13.53
2019-02-20T03:05:38.014Z,13.30
2019-02-20T03:08:07.529Z,12.70
2019-02-20T03:10:36.677Z,12.70
2019-02-20T03:13:05.925Z,12.47
2019-02-20T03:15:35.063Z,14.47
2019-02-20T03:18:04.483Z,12.58
2019-02-20T03:20:33.996Z,13.98
2019-02-20T03:23:03.859Z,13.78
2019-02-20T03:25:33.072Z,12.80
2019-02-20T03:28:02.288Z,13.70
2019-02-20T03:30:31.563Z,14.30
2019-02-20T03:33:00.858Z,13.73
2019-02-20T03:35:30.124Z,13.20
2019-02-20T03:37:59.249Z,13.00
2019-02-20T03:40:28.752Z,13.33
2019-02-20T03:42:57.936Z,14.87
2019-02-20T03:45:28.031Z,14.35
2019-02-20T03:47:57.280Z,15.00
2019-02-20T03:50:26.399Z,14.60
2019-02-20T03:52:55.627Z,14.33
2019-02-20T03:55:24.761Z,14.90
2019-02-20T03:57:53.896Z,14.10
2019-02-20T04:00:23.339Z,14.73
2019-02-20T04:02:52.503Z,14.50
2019-02-20T04:05:22.026Z,15.00
2019-02-20T04:07:51.610Z,15.87
2019-02-20T04:10:21.151Z,17.87
2019-02-20T04:12:51.139Z,19.33
2019-02-20T04:15:20.272Z,18.70
2019-02-20T04:17:49.371Z,16.90
2019-02-20T04:20:18.583Z,16.10
2019-02-20T04:22:47.718Z,17.10
2019-02-20T04:25:17.144Z,16.50
2019-02-20T04:27:46.297Z,15.23
2019-02-20T04:30:15.777Z,16.20
2019-02-20T04:32:44.938Z,15.57
2019-02-20T04:35:14.160Z,17.37
2019-02-20T04:37:43.636Z,16.17
2019-02-20T04:40:12.810Z,18.62
2019-02-20T04:42:42.031Z,15.40
2019-02-20T04:45:11.305Z,16.25
2019-02-20T04:47:40.526Z,15.85
2019-02-20T04:50:09.799Z,16.07
2019-02-20T04:52:39.632Z,14.40
2019-02-20T04:55:09.163Z,15.97
2019-02-20T04:57:38.435Z,16.02
2019-02-20T05:00:09.782Z,14.83
2019-02-20T05:02:39.079Z,15.83
2019-02-20T05:05:08.255Z,15.50
2019-02-20T05:07:37.418Z,15.75
2019-02-20T05:10:07.940Z,16.77
2019-02-20T05:12:37.069Z,18.25
2019-02-20T05:15:06.266Z,17.42
2019-02-20T05:17:35.380Z,17.45
2019-02-20T05:20:05.053Z,18.73
2019-02-20T05:22:41.903Z,18.48
2019-02-20T05:25:11.527Z,18.82
2019-02-20T05:27:40.691Z,20.93
2019-02-20T05:30:10.194Z,20.70
2019-02-20T05:32:39.738Z,22.70
2019-02-20T05:35:09.061Z,17.57
2019-02-20T05:37:39.688Z,18.30
2019-02-20T05:40:08.974Z,20.07
2019-02-20T05:42:38.551Z,18.50
2019-02-20T05:45:08.638Z,19.40
2019-02-20T05:47:38.101Z,23.83
2019-02-20T05:50:07.416Z,19.30
2019-02-20T05:52:36.721Z,18.13
2019-02-20T05:55:07.133Z,18.47
2019-02-20T05:57:36.637Z,20.13
2019-02-20T06:00:06.579Z,17.80
2019-02-20T06:02:35.975Z,18.30
2019-02-20T06:05:05.765Z,17.25
2019-02-20T06:07:34.929Z,17.30
2019-02-20T06:10:04.437Z,17.45
2019-02-20T06:12:33.749Z,19.30
2019-02-20T06:15:03.014Z,19.70
2019-02-20T06:17:32.459Z,20.85
2019-02-20T06:20:01.772Z,18.57
2019-02-20T06:22:30.887Z,19.73
2019-02-20T06:25:00.024Z,20.25
2019-02-20T06:27:29.297Z,18.98
2019-02-20T06:29:58.588Z,19.83
2019-02-20T06:32:27.991Z,19.30
2019-02-20T06:34:57.211Z,18.25
2019-02-20T06:37:26.521Z,20.60
2019-02-20T06:39:55.814Z,18.03
2019-02-20T06:42:25.040Z,20.10
2019-02-20T06:44:54.242Z,18.25
2019-02-20T06:47:23.471Z,18.43
2019-02-20T06:49:52.633Z,17.00
2019-02-20T06:52:22.158Z,17.37
2019-02-20T06:54:53.951Z,137.07
2019-02-20T06:57:22.277Z,43.60
2019-02-20T06:59:51.685Z,21.90
2019-02-20T07:02:21.415Z,21.82
2019-02-20T07:05:39.931Z,25.10
2019-02-20T07:09:10.763Z,23.57
2019-02-20T07:12:22.643Z,26.70
2019-02-20T07:15:27.235Z,18.80
2019-02-20T07:18:33.157Z,21.37
2019-02-20T07:21:40.690Z,19.27
2019-02-20T07:24:43.651Z,20.97
2019-02-20T07:27:55.575Z,19.50
2019-02-20T07:30:24.769Z,20.20
2019-02-20T07:32:53.930Z,20.33
2019-02-20T07:35:23.386Z,18.10
2019-02-20T07:37:52.626Z,18.27
2019-02-20T07:40:21.946Z,19.07
2019-02-20T07:42:51.451Z,18.73
2019-02-20T07:45:20.787Z,19.03
2019-02-20T07:47:50.219Z,18.77
2019-02-20T07:50:20.150Z,18.57
2019-02-20T07:52:49.998Z,20.12
2019-02-20T07:55:19.319Z,19.82
2019-02-20T07:57:48.808Z,21.50
2019-02-20T08:00:19.186Z,21.15
2019-02-20T08:02:48.810Z,21.00
2019-02-20T08:05:18.175Z,21.77
2019-02-20T08:07:50.942Z,23.03
2019-02-20T08:10:23.279Z,24.10
2019-02-20T08:12:52.684Z,20.87
2019-02-20T08:15:22.278Z,21.83
2019-02-20T08:17:51.785Z,20.40
2019-02-20T08:20:21.013Z,22.30
2019-02-20T08:22:50.283Z,23.22
2019-02-20T08:25:22.826Z,24.13
2019-02-20T08:27:50.674Z,24.93
2019-02-20T08:30:19.905Z,23.77
2019-02-20T08:32:49.099Z,24.20
2019-02-20T08:35:18.599Z,26.90
2019-02-20T08:37:48.000Z,25.90
2019-02-20T08:40:17.169Z,25.37
2019-02-20T08:42:46.393Z,25.40
2019-02-20T08:45:15.613Z,26.20
2019-02-20T08:47:45.083Z,24.40
2019-02-20T08:50:14.399Z,25.97
2019-02-20T08:52:43.550Z,25.30
2019-02-20T08:55:12.795Z,24.60
2019-02-20T08:57:42.074Z,25.17
2019-02-20T09:00:12.873Z,24.10
2019-02-20T09:02:42.417Z,25.37
2019-02-20T09:05:11.677Z,25.30
2019-02-20T09:07:40.888Z,26.20
2019-02-20T09:10:10.422Z,24.72
2019-02-20T09:12:39.554Z,25.47
2019-02-20T09:15:09.166Z,23.40
2019-02-20T09:17:38.406Z,23.92
2019-02-20T09:20:08.459Z,23.80
2019-02-20T09:22:39.437Z,23.30
2019-02-20T09:25:09.619Z,23.77
2019-02-20T09:27:38.779Z,23.40
2019-02-20T09:30:10.176Z,24.60
2019-02-20T09:32:39.415Z,24.83
2019-02-20T09:35:08.847Z,26.57
2019-02-20T09:37:40.257Z,24.43
2019-02-20T09:40:13.055Z,32.00
2019-02-20T09:42:43.269Z,26.33
2019-02-20T09:45:12.723Z,25.40
2019-02-20T09:47:41.887Z,25.77
2019-02-20T09:50:11.158Z,24.77
2019-02-20T09:52:40.336Z,25.00
2019-02-20T09:55:10.419Z,26.40
2019-02-20T09:57:39.991Z,25.60
2019-02-20T10:00:11.875Z,25.33
2019-02-20T10:02:41.341Z,24.93
2019-02-20T10:05:10.710Z,24.37
2019-02-20T10:07:39.941Z,24.23
2019-02-20T10:10:09.251Z,23.40
2019-02-20T10:12:38.560Z,19.90
2019-02-20T10:15:08.463Z,20.17
2019-02-20T10:17:37.630Z,20.03
2019-02-20T10:20:07.491Z,18.27
2019-02-20T10:22:36.624Z,18.30
2019-02-20T10:25:06.025Z,19.43
2019-02-20T10:27:35.187Z,19.77
2019-02-20T10:30:04.810Z,20.47
2019-02-20T10:32:33.971Z,16.60
2019-02-20T10:35:03.168Z,17.00
2019-02-20T10:37:32.293Z,18.05
2019-02-20T10:40:01.507Z,19.07
2019-02-20T10:42:30.676Z,19.10
2019-02-20T10:44:59.853Z,19.95
2019-02-20T10:47:29.079Z,17.30
2019-02-20T10:49:58.327Z,16.85
2019-02-20T10:52:27.604Z,17.60
2019-02-20T10:54:57.954Z,17.20
2019-02-20T10:57:27.231Z,17.50
2019-02-20T10:59:56.421Z,17.90
2019-02-20T11:02:25.983Z,17.70
2019-02-20T11:04:55.309Z,17.33
2019-02-20T11:07:24.521Z,17.37
2019-02-20T11:09:54.005Z,17.30
2019-02-20T11:12:23.214Z,17.20
2019-02-20T11:14:52.523Z,16.67
2019-02-20T11:17:22.111Z,17.35
2019-02-20T11:19:51.712Z,18.47
2019-02-20T11:22:20.933Z,17.77
2019-02-20T11:24:50.156Z,16.87
2019-02-20T11:27:19.516Z,16.80
2019-02-20T11:29:48.836Z,15.50
2019-02-20T11:32:17.948Z,15.27
2019-02-20T11:34:47.383Z,15.63
2019-02-20T11:37:16.663Z,16.00
2019-02-20T11:39:46.135Z,14.93
2019-02-20T11:42:15.470Z,15.20
2019-02-20T11:44:44.697Z,15.07
2019-02-20T11:47:13.915Z,13.17
2019-02-20T11:49:43.320Z,13.60
2019-02-20T11:52:12.958Z,14.77
2019-02-20T11:54:42.139Z,14.07
2019-02-20T11:57:11.655Z,12.27
2019-02-20T11:59:41.027Z,13.90
2019-02-20T12:02:10.538Z,12.73
2019-02-20T12:04:39.890Z,12.35
2019-02-20T12:07:09.719Z,12.33
2019-02-20T12:09:39.523Z,12.87
2019-02-20T12:12:09.453Z,10.80
2019-02-20T12:14:38.961Z,11.40
2019-02-20T12:17:08.447Z,10.93
2019-02-20T12:19:39.351Z,10.60
2019-02-20T12:22:08.660Z,11.30
2019-02-20T12:24:37.888Z,11.00
2019-02-20T12:27:07.709Z,10.15
2019-02-20T12:29:37.116Z,11.97
2019-02-20T12:32:06.327Z,11.53
2019-02-20T12:34:35.511Z,11.70
2019-02-20T12:37:04.991Z,11.80
2019-02-20T12:39:34.175Z,11.30
2019-02-20T12:42:03.451Z,10.80
2019-02-20T12:44:32.698Z,11.05
2019-02-20T12:47:01.892Z,10.90
2019-02-20T12:49:31.046Z,12.13
2019-02-20T12:52:00.567Z,10.98
2019-02-20T12:54:29.883Z,10.80
2019-02-20T12:56:59.136Z,10.70
2019-02-20T12:59:28.756Z,10.07
2019-02-20T13:01:58.020Z,10.83
2019-02-20T13:04:27.555Z,11.10
2019-02-20T13:06:59.547Z,10.73
2019-02-20T13:09:28.189Z,10.13
2019-02-20T13:11:57.421Z,10.27
2019-02-20T13:14:26.658Z,9.63
2019-02-20T13:16:55.924Z,10.30
2019-02-20T13:19:25.247Z,10.93
2019-02-20T13:21:55.147Z,10.17
2019-02-20T13:24:24.438Z,10.10
2019-02-20T13:26:54.445Z,11.47
2019-02-20T13:29:23.824Z,11.20
2019-02-20T13:31:53.352Z,10.48
2019-02-20T13:34:22.697Z,10.10
2019-02-20T13:36:51.920Z,12.00
2019-02-20T13:39:21.530Z,10.85
2019-02-20T13:41:51.122Z,10.00
2019-02-20T13:44:20.592Z,9.23
2019-02-20T13:46:49.874Z,9.40
2019-02-20T13:49:19.265Z,10.13
2019-02-20T13:51:48.575Z,8.88
2019-02-20T13:54:17.769Z,9.80
2019-02-20T13:56:47.441Z,9.20
2019-02-20T13:59:16.802Z,9.65
2019-02-20T14:01:46.146Z,9.00
2019-02-20T14:04:16.080Z,8.20
2019-02-20T14:06:45.331Z,8.87
2019-02-20T14:09:15.261Z,9.37
2019-02-20T14:11:44.925Z,9.68
2019-02-20T14:14:14.489Z,8.57
2019-02-20T14:16:43.670Z,9.47
2019-02-20T14:19:13.423Z,9.90
2019-02-20T14:21:42.829Z,8.93
2019-02-20T14:24:12.118Z,8.20
2019-02-20T14:26:41.436Z,7.80
2019-02-20T14:29:10.694Z,8.60
2019-02-20T14:31:39.822Z,8.50
2019-02-20T14:34:09.476Z,8.67
2019-02-20T14:36:38.630Z,9.93
2019-02-20T14:39:07.863Z,10.43
2019-02-20T14:41:37.110Z,10.77
2019-02-20T14:44:06.555Z,9.33
2019-02-20T14:46:36.335Z,10.50
2019-02-20T14:49:05.529Z,9.40
2019-02-20T14:51:34.744Z,10.68
2019-02-20T14:54:03.968Z,11.70
2019-02-20T14:56:33.826Z,11.55
2019-02-20T14:59:03.639Z,10.23
2019-02-20T15:01:32.970Z,10.97
2019-02-20T15:04:02.750Z,11.05
2019-02-20T15:06:32.891Z,11.67
2019-02-20T15:09:02.256Z,10.95
2019-02-20T15:11:31.642Z,12.00
2019-02-20T15:14:00.908Z,10.30
2019-02-20T15:16:30.222Z,11.18
2019-02-20T15:18:59.568Z,11.35
2019-02-20T15:21:29.292Z,10.97
2019-02-20T15:23:58.492Z,10.43
2019-02-20T15:26:27.747Z,10.10
2019-02-20T15:28:57.049Z,11.03
2019-02-20T15:31:33.402Z,9.65
2019-02-20T15:33:57.250Z,9.25
2019-02-20T15:36:26.763Z,9.63
2019-02-20T15:38:55.948Z,8.83
2019-02-20T15:41:25.199Z,9.47
2019-02-20T15:43:54.347Z,9.67
2019-02-20T15:46:23.781Z,9.57
2019-02-20T15:48:53.054Z,9.63
2019-02-20T15:51:23.065Z,8.43
2019-02-20T15:53:52.271Z,9.85
2019-02-20T15:56:21.853Z,8.93
2019-02-20T15:58:51.168Z,9.67
2019-02-20T16:01:20.343Z,9.03
2019-02-20T17:17:21.980Z,10.93
2019-02-20T17:19:51.119Z,10.27
2019-02-20T17:22:20.287Z,9.48
2019-02-20T18:28:39.079Z,13.37
2019-02-20T18:31:08.469Z,13.65
2019-02-20T18:33:37.689Z,13.63
2019-02-20T18:36:08.020Z,12.10
2019-02-20T18:38:38.036Z,13.43
2019-02-20T18:41:07.532Z,13.35
2019-02-20T18:43:37.411Z,13.87
2019-02-20T18:46:06.640Z,14.93
2019-02-20T18:48:37.500Z,13.30
2019-02-20T18:51:07.146Z,15.33
2019-02-20T18:53:36.433Z,15.07
2019-02-20T18:56:05.620Z,17.90
2019-02-20T18:58:35.029Z,20.17
2019-02-20T19:01:04.744Z,17.40
2019-02-20T19:03:34.599Z,17.25
2019-02-20T19:06:04.238Z,15.33
2019-02-20T19:08:44.840Z,16.27
2019-02-20T19:11:27.526Z,16.97
2019-02-20T19:14:05.549Z,17.10
2019-02-20T19:17:28.003Z,16.77
2019-02-20T19:20:47.189Z,19.92
2019-02-20T19:23:53.162Z,19.00
2019-02-20T19:26:36.542Z,17.20
2019-02-20T19:29:35.038Z,19.13
2019-02-20T19:32:41.860Z,20.03
2019-02-20T19:36:01.852Z,18.20
2019-02-20T19:39:18.546Z,19.67
2019-02-20T19:42:30.109Z,23.53
2019-02-20T19:45:34.507Z,20.30
2019-02-20T19:48:18.934Z,20.67
2019-02-20T19:50:57.622Z,20.23
2019-02-20T19:53:38.723Z,21.30
2019-02-20T19:56:40.897Z,21.45
2019-02-20T19:59:56.827Z,20.67
2019-02-20T20:03:19.547Z,19.80
2019-02-20T20:06:19.018Z,19.90
2019-02-20T20:09:11.723Z,20.93
2019-02-20T20:12:36.362Z,20.37
2019-02-20T20:15:32.619Z,20.08
2019-02-20T20:18:37.874Z,20.10
2019-02-20T20:21:41.674Z,21.90
2019-02-20T20:24:42.938Z,19.87
2019-02-20T20:27:59.757Z,20.15
2019-02-20T20:30:56.285Z,20.43
2019-02-20T20:34:28.967Z,23.23
2019-02-20T20:37:36.389Z,30.07
2019-02-20T20:40:34.987Z,27.55
2019-02-20T20:43:50.282Z,23.57
2019-02-20T20:46:50.031Z,23.70
2019-02-20T20:49:41.348Z,23.12
2019-02-20T20:53:07.974Z,25.55
2019-02-20T20:56:22.206Z,27.90
2019-02-20T20:59:31.561Z,33.20
2019-02-20T21:02:36.129Z,28.40
2019-02-20T21:06:01.053Z,30.17
2019-02-20T21:09:07.434Z,32.67
2019-02-20T21:12:33.489Z,26.80
2019-02-20T21:15:54.469Z,23.70
2019-02-20T21:19:23.535Z,22.40
2019-02-20T21:22:16.939Z,20.40
2019-02-20T21:25:25.094Z,24.70
2019-02-20T21:28:36.271Z,29.93
2019-02-20T21:31:24.335Z,27.00
2019-02-20T21:34:56.013Z,33.20
2019-02-20T21:37:53.689Z,24.83
2019-02-20T21:40:57.050Z,35.30
2019-02-20T21:43:59.473Z,58.25
2019-02-20T21:47:25.251Z,53.53
2019-02-20T21:50:41.508Z,26.50
2019-02-20T21:53:59.226Z,47.80
2019-02-20T21:56:51.617Z,29.05
2019-02-20T21:59:59.445Z,23.07
2019-02-20T22:03:00.271Z,20.57
2019-02-20T22:06:02.615Z,21.87
2019-02-20T22:09:21.262Z,22.97
2019-02-20T22:12:32.623Z,20.77
2019-02-20T22:15:26.214Z,20.93
2019-02-20T22:18:36.321Z,20.53
2019-02-20T22:21:59.358Z,20.23
2019-02-20T22:24:59.965Z,22.23
2019-02-20T22:28:11.151Z,19.87
2019-02-20T22:31:00.950Z,20.83
2019-02-20T22:34:03.773Z,19.90
2019-02-20T22:37:12.895Z,19.17
2019-02-20T22:40:13.659Z,19.43
2019-02-20T22:43:09.769Z,21.77
2019-02-20T22:46:09.623Z,20.63
2019-02-20T22:49:06.808Z,20.53
2019-02-20T22:52:01.165Z,22.52
2019-02-20T22:55:29.245Z,19.90
2019-02-20T22:58:38.152Z,19.30
2019-02-20T23:01:22.595Z,18.17
2019-02-20T23:04:35.035Z,19.20
2019-02-20T23:07:58.922Z,20.23
2019-02-20T23:11:11.751Z,18.63
2019-02-20T23:14:18.855Z,19.40
2019-02-20T23:16:47.988Z,19.80
2019-02-20T23:19:17.153Z,18.37
2019-02-20T23:21:47.709Z,19.50
2019-02-20T23:24:18.999Z,19.10
2019-02-20T23:26:48.316Z,19.55
2019-02-20T23:29:17.776Z,19.17
2019-02-20T23:31:47.290Z,19.85
2019-02-20T23:34:16.682Z,19.03
2019-02-20T23:36:45.904Z,20.07
2019-02-20T23:39:15.488Z,18.55
2019-02-20T23:41:45.229Z,19.37
2019-02-20T23:44:14.402Z,18.40
2019-02-20T23:46:43.698Z,17.97
2019-02-20T23:49:13.315Z,18.07
2019-02-20T23:51:42.599Z,18.37
2019-02-20T23:54:12.195Z,18.60
2019-02-20T23:56:41.667Z,18.60
2019-02-20T23:59:13.701Z,18.90
